Time;durP1;ratioP1;P1;durP2;ratioP2;P2;SDS_P1;SDS_P2;PMS_P1;PMS_P2;Temp;Humidity;BMP_temperature;BMP_pressure;BME280_temperature;BME280_humidity;BME280_pressure;Samples;Min_cycle;Max_cycle;Signal;HPM_P1;HPM_P2
2022/07/12 00:00:54;;;;;;;1999.90;999.90;;;;;;;11.27;100.00;100075.75;5043163;28;20048;-52
2022/07/12 00:03:38;;;;;;;1999.90;999.90;;;;;;;11.12;100.00;100079.63;5046372;28;20087;-53
2022/07/12 00:06:23;;;;;;;1999.90;999.90;;;;;;;11.27;100.00;100069.66;5045430;28;20045;-52
2022/07/12 00:09:07;;;;;;;1999.90;999.90;;;;;;;11.39;100.00;100064.13;5045302;28;22033;-52
2022/07/12 00:11:51;;;;;;;1999.90;999.90;;;;;;;11.35;100.00;100065.13;5045216;28;20648;-52
2022/07/12 00:14:36;;;;;;;1999.90;999.90;;;;;;;11.37;100.00;100068.53;5043942;28;20385;-52
2022/07/12 00:17:20;;;;;;;1999.90;999.90;;;;;;;11.25;100.00;100056.59;5046882;28;20379;-52
2022/07/12 00:20:05;;;;;;;1999.90;999.90;;;;;;;11.26;100.00;100060.09;5044566;28;20087;-53
2022/07/12 00:22:50;;;;;;;1999.90;999.90;;;;;;;11.20;100.00;100067.19;5040697;28;20041;-53
2022/07/12 00:25:34;;;;;;;1999.90;999.90;;;;;;;11.19;100.00;100054.97;5043294;28;20136;-52
2022/07/12 00:28:19;;;;;;;1999.90;999.90;;;;;;;11.19;100.00;100054.13;5043128;28;20053;-53
2022/07/12 00:31:04;;;;;;;1999.90;999.90;;;;;;;11.15;100.00;100055.97;5043974;28;20147;-53
2022/07/12 00:33:49;;;;;;;1999.90;999.90;;;;;;;11.20;100.00;100067.19;5042367;28;20119;-52
2022/07/12 00:36:33;;;;;;;1999.90;999.90;;;;;;;11.23;100.00;100067.13;5043167;28;20056;-53
2022/07/12 00:39:18;;;;;;;1999.90;999.90;;;;;;;11.25;100.00;100068.84;5041970;28;20047;-51
2022/07/12 00:42:03;;;;;;;1999.90;999.90;;;;;;;11.30;100.00;100053.84;5043734;28;20492;-51
2022/07/12 00:44:48;;;;;;;1999.90;999.90;;;;;;;11.33;100.00;100062.50;5039676;28;20025;-53
2022/07/12 00:47:43;;;;;;;1999.90;999.90;;;;;;;11.35;100.00;100070.34;5042397;28;20140;-51
2022/07/12 00:50:28;;;;;;;1999.90;999.90;;;;;;;11.34;100.00;100064.25;5041727;28;20125;-51
2022/07/12 00:53:14;;;;;;;1999.90;999.90;;;;;;;11.29;100.00;100062.63;5043839;28;20048;-53
2022/07/12 00:55:59;;;;;;;1999.90;999.90;;;;;;;11.17;100.00;100054.16;5044692;28;20081;-53
2022/07/12 00:58:44;;;;;;;1999.90;999.90;;;;;;;11.08;100.00;100062.25;5042949;28;20048;-51
2022/07/12 01:01:28;;;;;;;1999.90;999.90;;;;;;;11.01;100.00;100071.13;5042417;28;20052;-52
2022/07/12 01:04:17;;;;;;;1999.90;999.90;;;;;;;10.97;100.00;100064.22;5045494;28;20045;-51
2022/07/12 01:07:01;;;;;;;1999.90;999.90;;;;;;;10.98;100.00;100074.69;5043306;28;20064;-52
2022/07/12 01:09:46;;;;;;;1999.90;999.90;;;;;;;10.97;100.00;100070.34;5045397;28;20075;-53
2022/07/12 01:12:30;;;;;;;1999.90;999.90;;;;;;;10.99;100.00;100076.41;5046743;28;20060;-52
2022/07/12 01:15:15;;;;;;;1999.90;999.90;;;;;;;11.00;100.00;100066.78;5042389;28;20195;-52
2022/07/12 01:18:01;;;;;;;1999.90;999.90;;;;;;;11.07;100.00;100078.84;5046544;28;20379;-51
2022/07/12 01:20:46;;;;;;;1999.90;999.90;;;;;;;11.07;100.00;100076.22;5045452;28;20566;-53
2022/07/12 01:23:32;;;;;;;1999.90;999.90;;;;;;;11.07;100.00;100080.63;5043468;28;20052;-53
2022/07/12 01:26:16;;;;;;;1999.90;999.90;;;;;;;11.09;100.00;100074.44;5041934;28;20068;-52
2022/07/12 01:29:01;;;;;;;1999.90;999.90;;;;;;;11.04;100.00;100073.69;5045462;28;20082;-53
2022/07/12 01:31:46;;;;;;;1999.90;999.90;;;;;;;11.13;100.00;100072.63;5043436;28;20412;-54
2022/07/12 01:34:31;;;;;;;1999.90;999.90;;;;;;;11.05;100.00;100072.81;5041273;28;20060;-52
2022/07/12 01:37:18;;;;;;;1999.90;999.90;;;;;;;11.02;100.00;100074.59;5040904;28;20079;-53
2022/07/12 01:40:05;;;;;;;1999.90;999.90;;;;;;;10.89;100.00;100069.66;5044871;28;20048;-53
2022/07/12 01:42:51;;;;;;;1999.90;999.90;;;;;;;10.88;100.00;100073.16;5041340;28;20041;-52
2022/07/12 01:45:35;;;;;;;1999.90;999.90;;;;;;;10.78;100.00;100069.00;5041382;28;20079;-52
2022/07/12 01:48:19;;;;;;;1999.90;999.90;;;;;;;10.69;100.00;100063.97;5043841;28;20120;-53
2022/07/12 01:51:05;;;;;;;1999.90;999.90;;;;;;;10.62;100.00;100070.25;5044912;28;20504;-52
2022/07/12 01:53:49;;;;;;;1999.90;999.90;;;;;;;10.59;100.00;100063.31;5047733;28;20073;-53
2022/07/12 01:56:35;;;;;;;1999.90;999.90;;;;;;;10.62;100.00;100065.00;5047572;28;20051;-53
2022/07/12 01:59:20;;;;;;;1999.90;999.90;;;;;;;10.51;100.00;100057.38;5045273;28;20062;-51
2022/07/12 02:02:07;;;;;;;1999.90;999.90;;;;;;;10.51;100.00;100066.09;5046806;28;20073;-51
2022/07/12 02:04:51;;;;;;;1999.90;999.90;;;;;;;10.48;100.00;100057.44;5046896;28;20075;-52
2022/07/12 02:07:36;;;;;;;1999.90;999.90;;;;;;;10.43;100.00;100073.25;5047711;28;20070;-51
2022/07/12 02:10:20;;;;;;;1999.90;999.90;;;;;;;10.41;100.00;100068.94;5046998;28;20049;-52
2022/07/12 02:13:05;;;;;;;1999.90;999.90;;;;;;;10.39;100.00;100075.94;5049325;28;20060;-52
2022/07/12 02:15:50;;;;;;;1999.90;999.90;;;;;;;10.42;100.00;100070.66;5047911;28;20638;-53
2022/07/12 02:18:34;;;;;;;1999.90;999.90;;;;;;;10.38;100.00;100077.72;5047645;28;20095;-52
2022/07/12 02:21:18;;;;;;;1999.90;999.90;;;;;;;10.29;100.00;100073.50;5047339;28;21331;-51
2022/07/12 02:24:04;;;;;;;1999.90;999.90;;;;;;;10.35;100.00;100074.28;5047832;28;20068;-51
2022/07/12 02:26:49;;;;;;;1999.90;999.90;;;;;;;10.34;100.00;100072.56;5044706;28;20111;-51
2022/07/12 02:29:35;;;;;;;1999.90;999.90;;;;;;;10.21;100.00;100077.16;5047663;28;20507;-51
2022/07/12 02:32:19;;;;;;;1999.90;999.90;;;;;;;10.18;100.00;100070.22;5047509;28;20083;-51
2022/07/12 02:35:05;;;;;;;1999.90;999.90;;;;;;;10.11;100.00;100081.69;5046322;28;20048;-52
2022/07/12 02:37:50;;;;;;;1999.90;999.90;;;;;;;10.09;100.00;100077.38;5045385;28;20055;-53
2022/07/12 02:40:55;;;;;;;1999.90;999.90;;;;;;;10.18;100.00;100069.38;5046271;28;20099;-53
2022/07/12 02:43:38;;;;;;;1999.90;999.90;;;;;;;10.10;100.00;100056.41;5048228;28;20110;-51
2022/07/12 02:46:23;;;;;;;1999.90;999.90;;;;;;;10.14;100.00;100071.19;5047219;28;20044;-52
2022/07/12 02:49:07;;;;;;;1999.90;999.90;;;;;;;10.16;100.00;100081.59;5046821;28;20110;-53
2022/07/12 02:51:52;;;;;;;1999.90;999.90;;;;;;;10.07;100.00;100077.41;5043969;28;20475;-53
2022/07/12 02:54:36;;;;;;;1999.90;999.90;;;;;;;10.27;100.00;100079.69;5072653;28;20040;-51
2022/07/12 02:57:20;;;;;;;1999.90;999.90;;;;;;;10.34;100.00;100075.19;5046721;28;20056;-51
2022/07/12 03:00:07;;;;;;;1999.90;999.90;;;;;;;10.31;100.00;100073.50;5046789;28;20049;-51
2022/07/12 03:02:52;;;;;;;1999.90;999.90;;;;;;;10.53;100.00;100068.69;5047702;28;20060;-52
2022/07/12 03:05:36;;;;;;;1999.90;999.90;;;;;;;10.56;100.00;100075.59;5045390;28;20103;-53
2022/07/12 03:08:21;;;;;;;1999.90;999.90;;;;;;;10.63;100.00;100072.00;5044559;28;20041;-51
2022/07/12 03:11:05;;;;;;;1999.90;999.90;;;;;;;10.73;100.00;100071.75;5045645;28;20612;-52
2022/07/12 03:13:51;;;;;;;1999.90;999.90;;;;;;;10.75;100.00;100075.19;5044289;28;20377;-53
2022/07/12 03:16:35;;;;;;;1999.90;999.90;;;;;;;10.81;100.00;100074.19;5044363;28;20137;-51
2022/07/12 03:19:20;;;;;;;1999.90;999.90;;;;;;;10.89;100.00;100069.66;5045267;28;20182;-53
2022/07/12 03:22:04;;;;;;;1999.90;999.90;;;;;;;10.92;100.00;100072.22;5045652;28;20103;-53
2022/07/12 03:24:49;;;;;;;1999.90;999.90;;;;;;;11.08;100.00;100071.84;5046783;28;20510;-51
2022/07/12 03:27:34;;;;;;;1999.90;999.90;;;;;;;11.09;100.00;100070.97;5046536;28;20051;-51
2022/07/12 03:30:18;;;;;;;1999.90;999.90;;;;;;;11.12;100.00;100074.38;5044814;28;20394;-53
2022/07/12 03:33:03;;;;;;;1999.90;999.90;;;;;;;11.25;100.00;100081.97;5043932;28;21192;-52
2022/07/12 03:35:48;;;;;;;1999.90;999.90;;;;;;;11.33;100.00;100086.09;5043265;28;20053;-53
2022/07/12 03:38:32;;;;;;;1999.90;999.90;;;;;;;11.33;100.00;100095.75;5046689;28;20087;-52
2022/07/12 03:41:16;;;;;;;1999.90;999.90;;;;;;;11.33;100.00;100093.13;5045874;28;20064;-52
2022/07/12 03:44:00;;;;;;;1999.90;999.90;;;;;;;11.41;100.00;100084.19;5046469;28;20052;-52
2022/07/12 03:46:45;;;;;;;1999.90;999.90;;;;;;;11.46;100.00;100076.19;5045682;28;20055;-53
2022/07/12 03:49:30;;;;;;;1999.90;999.90;;;;;;;11.49;100.00;100076.13;5047421;28;20107;-52
2022/07/12 03:52:14;;;;;;;1999.90;999.90;;;;;;;11.60;100.00;100076.72;5047282;28;20053;-54
2022/07/12 03:55:01;;;;;;;1999.90;999.90;;;;;;;11.67;100.00;100080.91;5046686;28;20046;-54
2022/07/12 03:57:47;;;;;;;1999.90;999.90;;;;;;;11.75;100.00;100077.22;5044434;28;20064;-51
2022/07/12 04:00:32;;;;;;;1999.90;999.90;;;;;;;11.93;100.00;100075.03;5045799;28;20157;-53
2022/07/12 04:03:16;;;;;;;1999.90;999.90;;;;;;;12.03;100.00;100070.41;5045085;28;20075;-52
2022/07/12 04:06:01;;;;;;;1999.90;999.90;;;;;;;12.24;100.00;100071.56;5042656;28;20126;-51
2022/07/12 04:08:45;;;;;;;1999.90;999.90;;;;;;;12.28;100.00;100054.81;5045107;28;20053;-52
2022/07/12 04:11:30;;;;;;;1999.90;999.90;;;;;;;12.60;100.00;100067.03;5045448;28;20217;-54
2022/07/12 04:14:15;;;;;;;1999.90;999.90;;;;;;;12.89;100.00;100062.66;5046798;28;20044;-53
2022/07/12 04:16:59;;;;;;;1999.90;999.90;;;;;;;13.11;100.00;100060.25;5045552;28;20052;-51
2022/07/12 04:19:44;;;;;;;1999.90;999.90;;;;;;;12.89;100.00;100064.44;5043652;28;20056;-52
2022/07/12 04:22:28;;;;;;;1999.90;999.90;;;;;;;12.98;100.00;100070.28;5041542;28;20511;-53
2022/07/12 04:25:13;;;;;;;1999.90;999.90;;;;;;;12.99;100.00;100058.84;5042030;28;20056;-53
2022/07/12 04:27:57;;;;;;;1999.90;999.90;;;;;;;13.15;100.00;100064.50;5044062;28;20063;-53
2022/07/12 04:30:44;;;;;;;1999.90;999.90;;;;;;;12.96;100.00;100058.94;5045067;28;20056;-51
2022/07/12 04:33:28;;;;;;;1999.90;999.90;;;;;;;12.94;100.00;100065.19;5045362;28;20542;-53
2022/07/12 04:36:13;;;;;;;1999.90;999.90;;;;;;;13.09;100.00;100060.28;5041488;28;20056;-52
2022/07/12 04:38:57;;;;;;;1999.90;999.90;;;;;;;13.10;100.00;100061.16;5045704;28;20048;-52
2022/07/12 04:41:42;;;;;;;1999.90;999.90;;;;;;;13.13;100.00;100063.69;5046301;28;20049;-52
2022/07/12 04:44:26;;;;;;;1999.90;999.90;;;;;;;13.09;100.00;100059.41;5045116;28;20115;-52
2022/07/12 04:47:10;;;;;;;1999.90;999.90;;;;;;;13.14;100.00;100065.41;5060897;28;20475;-52
2022/07/12 04:49:55;;;;;;;1999.90;999.90;;;;;;;13.00;100.00;100055.34;5044945;28;20059;-53
2022/07/12 04:52:40;;;;;;;1999.90;999.90;;;;;;;13.05;100.00;100058.66;5047809;28;20384;-52
2022/07/12 04:55:24;;;;;;;1999.90;999.90;;;;;;;13.09;100.00;100048.91;5042888;28;20391;-51
2022/07/12 04:58:08;;;;;;;1999.90;999.90;;;;;;;13.21;100.00;100048.53;5044467;28;20404;-53
2022/07/12 05:00:53;;;;;;;1999.90;999.90;;;;;;;13.22;100.00;100054.63;5043192;28;20055;-52
2022/07/12 05:03:38;;;;;;;1999.90;999.90;;;;;;;13.22;100.00;100052.84;5046219;28;20056;-52
2022/07/12 05:06:22;;;;;;;1999.90;999.90;;;;;;;13.26;100.00;100058.94;5044689;28;20133;-53
2022/07/12 05:09:07;;;;;;;1999.90;999.90;;;;;;;13.42;100.00;100049.66;5044331;28;20060;-52
2022/07/12 05:11:51;;;;;;;1999.90;999.90;;;;;;;13.56;100.00;100057.06;5044915;28;20052;-53
2022/07/12 05:14:35;;;;;;;1999.90;999.90;;;;;;;13.62;100.00;100056.88;5046039;28;20122;-52
2022/07/12 05:17:20;;;;;;;1999.90;999.90;;;;;;;14.65;100.00;100054.06;5044142;28;20171;-53
2022/07/12 05:20:05;;;;;;;1999.90;999.90;;;;;;;15.39;100.00;100049.41;5047720;28;20103;-54
2022/07/12 05:22:49;;;;;;;1999.90;999.90;;;;;;;15.31;100.00;100050.66;5045933;28;20107;-51
2022/07/12 05:25:34;;;;;;;1999.90;999.90;;;;;;;15.64;100.00;100041.31;5045677;28;20069;-53
2022/07/12 05:28:18;;;;;;;1999.90;999.90;;;;;;;16.08;100.00;100045.63;5044841;28;20041;-54
2022/07/12 05:31:03;;;;;;;1999.90;999.90;;;;;;;16.32;100.00;100031.34;5046130;28;20045;-52
2022/07/12 05:33:47;;;;;;;1999.90;999.90;;;;;;;16.70;100.00;100027.84;5044041;28;20140;-54
2022/07/12 05:36:31;;;;;;;1999.90;999.90;;;;;;;17.07;100.00;100032.31;5044176;28;20107;-53
2022/07/12 05:39:16;;;;;;;1999.90;999.90;;;;;;;17.49;100.00;100033.78;5042036;28;20052;-53
2022/07/12 05:42:01;;;;;;;1999.90;999.90;;;;;;;17.13;100.00;100037.31;5044464;28;20061;-52
2022/07/12 05:44:45;;;;;;;1999.90;999.90;;;;;;;16.55;100.00;100032.94;5045315;28;20052;-53
2022/07/12 05:47:30;;;;;;;1999.90;999.90;;;;;;;16.67;100.00;100031.53;5045424;28;20084;-51
2022/07/12 05:50:14;;;;;;;1999.90;999.90;;;;;;;16.78;100.00;100031.91;5039404;28;20053;-54
2022/07/12 05:56:02;;;;;;;1999.90;999.90;;;;;;;17.37;100.00;100032.59;5041444;28;20166;-53
2022/07/12 05:58:46;;;;;;;1999.90;999.90;;;;;;;18.07;100.00;100035.25;5041063;28;20056;-53
2022/07/12 06:01:31;;;;;;;1999.90;999.90;;;;;;;18.53;100.00;100031.03;5040733;28;20451;-53
2022/07/12 06:04:15;;;;;;;1999.90;999.90;;;;;;;18.51;100.00;100029.38;5041448;28;20095;-52
2022/07/12 06:07:00;;;;;;;1999.90;999.90;;;;;;;18.12;100.00;100030.56;5041123;28;20064;-52
2022/07/12 06:09:44;;;;;;;1999.90;999.90;;;;;;;17.20;100.00;100041.38;5040177;28;20056;-54
2022/07/12 06:12:29;;;;;;;1999.90;999.90;;;;;;;16.58;100.00;100030.16;5044710;28;20091;-53
2022/07/12 06:15:14;;;;;;;1999.90;999.90;;;;;;;16.71;100.00;100026.94;5040668;28;20049;-53
2022/07/12 06:17:58;;;;;;;1999.90;999.90;;;;;;;16.83;100.00;100018.44;5043441;28;20087;-53
2022/07/12 06:20:43;;;;;;;1999.90;999.90;;;;;;;16.75;100.00;100015.31;5042175;28;20045;-52
2022/07/12 06:23:28;;;;;;;1999.90;999.90;;;;;;;16.74;100.00;100009.16;5041762;28;20420;-53
2022/07/12 06:26:13;;;;;;;1999.90;999.90;;;;;;;17.27;100.00;99999.56;5042890;28;20088;-52
2022/07/12 06:28:57;;;;;;;1999.90;999.90;;;;;;;17.27;100.00;100010.16;5042091;28;20049;-54
2022/07/12 06:31:41;;;;;;;1999.90;999.90;;;;;;;17.31;100.00;99982.59;5044837;28;20506;-52
2022/07/12 06:34:25;;;;;;;1999.90;999.90;;;;;;;18.17;100.00;99986.16;5045120;28;20057;-52
2022/07/12 06:37:12;;;;;;;1999.90;999.90;;;;;;;18.74;100.00;99996.31;5045505;28;20075;-54
2022/07/12 06:39:57;;;;;;;1999.90;999.90;;;;;;;19.04;100.00;99983.09;5048822;28;20052;-52
2022/07/12 06:42:41;;;;;;;1999.90;999.90;;;;;;;19.57;100.00;99987.09;5048183;28;20060;-54
2022/07/12 06:45:25;;;;;;;1999.90;999.90;;;;;;;18.17;100.00;99987.00;5046601;28;20075;-52
2022/07/12 06:48:10;;;;;;;1999.90;999.90;;;;;;;18.14;100.00;99991.59;5045427;28;20041;-53
2022/07/12 06:50:55;;;;;;;1999.90;999.90;;;;;;;19.58;100.00;99999.44;5046531;28;20911;-53
2022/07/12 06:53:39;;;;;;;1999.90;999.90;;;;;;;20.22;100.00;99986.75;5051281;28;20077;-55
2022/07/12 06:56:24;;;;;;;1999.90;999.90;;;;;;;20.18;100.00;99987.84;5045030;28;20411;-53
2022/07/12 06:59:12;;;;;;;1999.90;999.90;;;;;;;20.17;100.00;99980.84;5050264;28;20052;-52
2022/07/12 07:01:57;;;;;;;1999.90;999.90;;;;;;;20.59;100.00;99984.44;5048570;28;20566;-53
2022/07/12 07:04:42;;;;;;;1999.90;999.90;;;;;;;21.24;100.00;99984.63;5047526;28;20095;-54
2022/07/12 07:07:26;;;;;;;1999.90;999.90;;;;;;;20.85;100.00;99977.44;5050231;28;20056;-54
2022/07/12 07:10:11;;;;;;;1999.90;999.90;;;;;;;21.15;100.00;99991.41;5048748;28;20040;-53
2022/07/12 07:12:56;;;;;;;1999.90;999.90;;;;;;;21.16;100.00;99992.28;5048678;28;20063;-56
2022/07/12 07:15:40;;;;;;;1999.90;999.90;;;;;;;20.13;100.00;100003.25;5049432;28;20526;-56
2022/07/12 07:18:25;;;;;;;1999.90;999.90;;;;;;;19.48;100.00;100006.25;5047643;28;20043;-54
2022/07/12 07:21:10;;;;;;;1999.90;999.90;;;;;;;18.99;100.00;100022.34;5047106;28;20044;-55
2022/07/12 07:23:55;;;;;;;1999.90;999.90;;;;;;;18.88;100.00;100022.94;5045600;28;20086;-56
2022/07/12 07:26:39;;;;;;;1999.90;999.90;;;;;;;18.64;100.00;100017.16;5047159;28;20067;-53
2022/07/12 07:32:27;;;;;;;1999.90;999.90;;;;;;;19.48;100.00;100011.56;5046664;28;20049;-55
2022/07/12 07:35:12;;;;;;;1999.90;999.90;;;;;;;18.80;100.00;100023.38;5043604;28;20102;-53
2022/07/12 07:37:56;;;;;;;1999.90;999.90;;;;;;;19.09;100.00;100026.19;5047434;28;20107;-52
2022/07/12 07:40:41;;;;;;;1999.90;999.90;;;;;;;19.31;100.00;100016.06;5046523;28;20055;-53
2022/07/12 07:43:25;;;;;;;1999.90;999.90;;;;;;;20.18;100.00;100014.44;5045467;28;20503;-54
2022/07/12 07:46:09;;;;;;;1999.90;999.90;;;;;;;20.89;100.00;100021.53;5040592;28;20056;-54
2022/07/12 07:48:54;;;;;;;1999.90;999.90;;;;;;;21.29;100.00;100024.28;5043512;28;20480;-54
2022/07/12 07:51:38;;;;;;;1999.90;999.90;;;;;;;21.74;100.00;100023.03;5044645;28;20057;-52
2022/07/12 07:54:22;;;;;;;1999.90;999.90;;;;;;;22.25;100.00;100014.22;5042972;28;20106;-53
2022/07/12 07:57:07;;;;;;;1999.90;999.90;;;;;;;22.00;100.00;100025.72;5046021;28;20045;-56
2022/07/12 07:59:51;;;;;;;1999.90;999.90;;;;;;;22.30;100.00;100034.31;5044297;28;20040;-56
2022/07/12 08:02:36;;;;;;;1999.90;999.90;;;;;;;22.61;100.00;100034.78;5045291;28;20103;-56
2022/07/12 08:05:20;;;;;;;1999.90;999.90;;;;;;;22.42;100.00;100029.03;5043783;28;20071;-53
2022/07/12 08:08:05;;;;;;;1999.90;999.90;;;;;;;21.87;100.00;100031.03;5043296;28;20067;-53
2022/07/12 08:10:50;;;;;;;1999.90;999.90;;;;;;;22.28;100.00;100028.22;5046462;28;20064;-56
2022/07/12 08:13:35;;;;;;;1999.90;999.90;;;;;;;22.11;100.00;100024.03;5043224;28;20455;-56
2022/07/12 08:16:19;;;;;;;1999.90;999.90;;;;;;;22.80;100.00;100027.16;5042829;28;20396;-55
2022/07/12 08:19:04;;;;;;;1999.90;999.90;;;;;;;22.72;100.00;100029.53;5042951;28;20451;-55
2022/07/12 08:21:49;;;;;;;1999.90;999.90;;;;;;;22.52;100.00;100028.31;5045246;28;20504;-55
2022/07/12 08:24:33;;;;;;;1999.90;999.90;;;;;;;22.75;100.00;100029.31;5043591;28;20048;-53
2022/07/12 08:27:17;;;;;;;1999.90;999.90;;;;;;;22.52;100.00;100030.09;5043099;28;20052;-53
2022/07/12 08:30:02;;;;;;;1999.90;999.90;;;;;;;22.57;100.00;100027.97;5045054;28;20074;-56
2022/07/12 08:32:47;;;;;;;1999.90;999.90;;;;;;;23.44;100.00;100031.44;5040765;28;20144;-54
2022/07/12 08:35:31;;;;;;;1999.90;999.90;;;;;;;22.67;100.00;100034.34;5043266;28;20091;-55
2022/07/12 08:38:16;;;;;;;1999.90;999.90;;;;;;;23.09;100.00;100029.56;5044458;28;20052;-53
2022/07/12 08:41:00;;;;;;;1999.90;999.90;;;;;;;22.58;100.00;100032.34;5044755;28;20041;-55
2022/07/12 08:43:45;;;;;;;1999.90;999.90;;;;;;;22.21;100.00;100034.09;5040956;28;20045;-54
2022/07/12 08:46:29;;;;;;;1999.90;999.90;;;;;;;22.77;100.00;100045.22;5044345;28;20052;-58
2022/07/12 08:49:14;;;;;;;1999.90;999.90;;;;;;;22.93;99.64;100042.28;5042232;28;20399;-54
2022/07/12 08:51:58;;;;;;;1999.90;999.90;;;;;;;22.10;100.00;100037.47;5043439;28;20140;-54
2022/07/12 08:54:43;;;;;;;1999.90;999.90;;;;;;;23.67;100.00;100041.25;5043863;28;20049;-55
2022/07/12 08:57:30;;;;;;;1999.90;999.90;;;;;;;23.59;100.00;100038.28;5041673;28;20048;-55
2022/07/12 09:00:15;;;;;;;1999.90;999.90;;;;;;;23.86;99.41;100039.88;5043089;28;20416;-53
2022/07/12 09:03:03;;;;;;;1999.90;999.90;;;;;;;23.90;95.67;100046.69;5043139;28;20040;-54
2022/07/12 09:05:57;;;;;;;1999.90;999.90;;;;;;;23.45;98.71;100046.50;5041768;28;20503;-56
2022/07/12 09:08:42;;;;;;;1999.90;999.90;;;;;;;22.29;100.00;100053.06;5044840;28;20160;-55
2022/07/12 09:11:26;;;;;;;1999.90;999.90;;;;;;;22.54;99.71;100041.53;5042693;28;20048;-54
2022/07/12 09:14:18;;;;;;;1999.90;999.90;;;;;;;23.53;97.07;100044.97;5042584;28;20131;-56
2022/07/12 09:17:13;;;;;;;1999.90;999.90;;;;;;;24.53;90.17;100047.16;5042777;28;20602;-55
2022/07/12 09:19:57;;;;;;;1999.90;999.90;;;;;;;24.82;93.30;100040.31;5043535;28;20734;-55
2022/07/12 09:22:52;;;;;;;1999.90;999.90;;;;;;;22.87;96.70;100046.25;5041154;28;20462;-53
2022/07/12 09:25:37;;;;;;;1999.90;999.90;;;;;;;23.73;96.37;100048.81;5040904;28;20059;-54
2022/07/12 09:28:22;;;;;;;1999.90;999.90;;;;;;;24.78;93.56;100046.03;5040496;28;20064;-53
2022/07/12 09:31:06;;;;;;;1999.90;999.90;;;;;;;24.64;92.53;100042.66;5039883;28;20041;-56
2022/07/12 09:37:04;;;;;;;1999.90;999.90;;;;;;;23.19;95.33;100056.44;5041462;28;20064;-54
2022/07/12 09:39:51;;;;;;;1999.90;999.90;;;;;;;23.45;90.57;100049.16;5038475;28;20107;-58
2022/07/12 09:42:35;;;;;;;1999.90;999.90;;;;;;;24.41;91.12;100041.81;5041280;28;20080;-55
2022/07/12 09:45:20;;;;;;;1999.90;999.90;;;;;;;21.88;96.79;100043.44;5042353;28;20103;-53
2022/07/12 09:48:06;;;;;;;1999.90;999.90;;;;;;;21.35;100.00;100045.19;5043451;28;20092;-52
2022/07/12 09:50:51;;;;;;;1999.90;999.90;;;;;;;23.28;97.06;100045.94;5043512;28;20057;-53
2022/07/12 09:53:44;;;;;;;1999.90;999.90;;;;;;;24.15;91.07;100046.50;5042226;28;20052;-55
2022/07/12 09:56:33;;;;;;;1999.90;999.90;;;;;;;24.46;88.12;100020.88;5043413;28;20049;-55
2022/07/12 09:59:22;;;;;;;1999.90;999.90;;;;;;;23.75;93.06;100032.66;5041868;28;20047;-56
2022/07/12 10:02:07;;;;;;;1999.90;999.90;;;;;;;24.08;92.25;100028.34;5043901;28;20045;-53
2022/07/12 10:04:52;;;;;;;1999.90;999.90;;;;;;;23.12;91.85;100034.69;5041108;28;20041;-56
2022/07/12 10:07:38;;;;;;;1999.90;999.90;;;;;;;24.49;89.60;100028.66;5042623;28;20052;-54
2022/07/12 10:10:24;;;;;;;1999.90;999.90;;;;;;;22.76;96.29;100030.16;5044419;28;20053;-54
2022/07/12 10:13:08;;;;;;;1999.90;999.90;;;;;;;23.31;93.83;100018.13;5045009;28;20171;-54
2022/07/12 10:16:00;;;;;;;1999.90;999.90;;;;;;;23.89;92.51;100015.56;5046958;28;20044;-53
2022/07/12 10:18:45;;;;;;;1999.90;999.90;;;;;;;24.12;88.82;100017.31;5063203;28;20052;-56
2022/07/12 10:21:29;;;;;;;1999.90;999.90;;;;;;;24.16;90.00;100026.78;5046928;28;20136;-51
2022/07/12 10:24:32;;;;;;;1999.90;999.90;;;;;;;24.45;88.06;100016.50;5047060;28;20048;-53
2022/07/12 10:27:16;;;;;;;1999.90;999.90;;;;;;;25.17;88.56;100017.88;5045856;28;20040;-53
2022/07/12 10:30:16;;;;;;;1999.90;999.90;;;;;;;25.61;88.88;100003.44;5046136;28;20064;-53
2022/07/12 10:33:00;;;;;;;1999.90;999.90;;;;;;;24.93;86.44;100013.53;5045971;28;20478;-57
2022/07/12 10:36:17;;;;;;;1999.90;999.90;;;;;;;24.71;83.46;100008.19;5042566;28;20048;-56
2022/07/12 10:39:12;;;;;;;1999.90;999.90;;;;;;;24.67;82.26;100002.25;5037982;28;20111;-54
2022/07/12 10:42:02;;;;;;;1999.90;999.90;;;;;;;25.56;84.21;100007.47;5044733;28;20049;-55
2022/07/12 10:44:47;;;;;;;1999.90;999.90;;;;;;;25.01;82.24;100007.53;5045024;28;20171;-58
2022/07/12 10:47:58;;;;;;;1999.90;999.90;;;;;;;23.45;82.18;100012.59;5046495;28;20067;-54
2022/07/12 10:50:48;;;;;;;1999.90;999.90;;;;;;;22.85;86.71;100013.50;5046527;28;20457;-53
2022/07/12 10:53:34;;;;;;;1999.90;999.90;;;;;;;22.86;87.13;100001.84;5044782;28;20049;-55
2022/07/12 10:56:25;;;;;;;1999.90;999.90;;;;;;;23.32;83.98;100007.31;5046629;28;20068;-57
2022/07/12 10:59:09;;;;;;;1999.90;999.90;;;;;;;24.83;80.68;99990.25;5044551;28;20110;-57
2022/07/12 11:01:56;;;;;;;1999.90;999.90;;;;;;;25.51;80.42;99991.78;5044691;28;20060;-56
2022/07/12 11:04:47;;;;;;;1999.90;999.90;;;;;;;23.40;82.48;100005.88;5044946;28;20042;-55
2022/07/12 11:07:32;;;;;;;1999.90;999.90;;;;;;;22.28;84.93;99998.00;5044122;28;20171;-56
2022/07/12 11:10:16;;;;;;;1999.90;999.90;;;;;;;22.37;83.67;100000.88;5046324;28;20061;-55
2022/07/12 11:13:01;;;;;;;1999.90;999.90;;;;;;;23.81;82.31;100007.28;5047233;28;20404;-55
2022/07/12 11:15:59;;;;;;;1999.90;999.90;;;;;;;23.83;79.89;99990.16;5042923;28;20052;-56
2022/07/12 11:18:44;;;;;;;1999.90;999.90;;;;;;;25.08;84.51;99979.25;5050035;28;20392;-56
2022/07/12 11:21:29;;;;;;;1999.90;999.90;;;;;;;23.97;78.82;99973.88;5047734;28;20055;-56
2022/07/12 11:24:20;;;;;;;1999.90;999.90;;;;;;;23.95;78.22;99985.66;5050122;28;20052;-56
2022/07/12 11:27:05;;;;;;;;;;;;;;;23.02;79.53;99983.75;5050487;28;20132;-56
2022/07/12 11:29:59;;;;;;;1999.90;999.90;;;;;;;23.49;80.55;99987.34;5048266;28;19920;-55
2022/07/12 11:32:46;;;;;;;1999.90;999.90;;;;;;;24.53;79.92;99975.72;5049119;28;20060;-55
2022/07/12 11:35:30;;;;;;;1999.90;999.90;;;;;;;24.45;75.06;99970.16;5049487;28;20116;-57
2022/07/12 11:38:23;;;;;;;1999.90;999.90;;;;;;;24.54;74.59;99961.38;5045111;28;20415;-57
2022/07/12 11:41:09;;;;;;;1999.90;999.90;;;;;;;24.08;77.75;99974.84;5049018;28;20506;-53
2022/07/12 11:43:54;;;;;;;1999.90;999.90;;;;;;;24.45;76.77;99968.31;5043518;28;20051;-58
2022/07/12 11:46:38;;;;;;;1999.90;999.90;;;;;;;24.92;75.83;99954.69;5038973;28;20079;-56
2022/07/12 11:49:23;;;;;;;1999.90;999.90;;;;;;;24.45;76.61;99956.75;5038622;28;20075;-57
2022/07/12 11:52:07;;;;;;;1999.90;999.90;;;;;;;24.64;75.50;99962.34;5041905;28;20095;-57
2022/07/12 11:54:53;;;;;;;1999.90;999.90;;;;;;;24.52;75.47;99949.94;5041409;28;20085;-56
2022/07/12 11:57:37;;;;;;;1999.90;999.90;;;;;;;24.33;79.33;99949.69;5039266;28;20037;-56
2022/07/12 12:00:23;;;;;;;1999.90;999.90;;;;;;;24.89;71.66;99961.19;5041849;28;20076;-56
2022/07/12 12:03:07;;;;;;;1999.90;999.90;;;;;;;24.95;70.12;99949.09;5042007;28;20067;-57
2022/07/12 12:05:54;;;;;;;1999.90;999.90;;;;;;;23.97;72.06;99949.78;5041434;28;20101;-55
2022/07/12 12:08:38;;;;;;;1999.90;999.90;;;;;;;25.17;74.19;99954.41;5041541;28;20056;-55
2022/07/12 12:11:28;;;;;;;1999.90;999.90;;;;;;;24.92;76.16;99942.16;5042171;28;20052;-56